sensor_id;sensor_type;location;lat;lon;timestamp;pressure;altitude;pressure_sealevel;temperature;humidity
40205;BME280;26963;42.666;23.366;2022-07-06T00:02:16;94842.41;;;20.57;77.78
40205;BME280;26963;42.666;23.366;2022-07-06T00:04:48;94879.88;;;20.87;79.09
40205;BME280;26963;42.666;23.366;2022-07-06T00:07:13;94895.50;;;20.90;77.21
40205;BME280;26963;42.666;23.366;2022-07-06T00:09:40;94838.41;;;20.71;75.62
40205;BME280;26963;42.666;23.366;2022-07-06T00:12:09;94907.00;;;21.26;75.41
40205;BME280;26963;42.666;23.366;2022-07-06T00:14:35;94902.41;;;21.30;75.55
40205;BME280;26963;42.666;23.366;2022-07-06T00:17:00;94895.97;;;21.15;75.37
40205;BME280;26963;42.666;23.366;2022-07-06T00:19:29;94912.97;;;21.12;77.03
40205;BME280;26963;42.666;23.366;2022-07-06T00:22:00;94868.13;;;20.63;77.91
40205;BME280;26963;42.666;23.366;2022-07-06T00:24:29;94911.22;;;20.81;78.92
40205;BME280;26963;42.666;23.366;2022-07-06T00:26:54;94914.84;;;20.69;79.49
40205;BME280;26963;42.666;23.366;2022-07-06T00:29:22;94936.06;;;20.63;80.43
40205;BME280;26963;42.666;23.366;2022-07-06T00:31:51;94858.81;;;20.06;81.42
40205;BME280;26963;42.666;23.366;2022-07-06T00:34:19;94919.19;;;20.34;81.82
40205;BME280;26963;42.666;23.366;2022-07-06T00:36:47;94940.09;;;20.50;84.76
40205;BME280;26963;42.666;23.366;2022-07-06T00:39:17;94937.25;;;20.62;83.36
40205;BME280;26963;42.666;23.366;2022-07-06T00:41:49;94950.38;;;20.96;83.13
40205;BME280;26963;42.666;23.366;2022-07-06T00:44:15;94958.44;;;21.12;82.55
40205;BME280;26963;42.666;23.366;2022-07-06T00:46:43;94939.53;;;21.19;81.37
40205;BME280;26963;42.666;23.366;2022-07-06T00:49:18;94946.03;;;21.34;80.20
40205;BME280;26963;42.666;23.366;2022-07-06T00:52:12;94934.06;;;21.39;79.09
40205;BME280;26963;42.666;23.366;2022-07-06T00:54:38;94939.34;;;21.51;78.43
40205;BME280;26963;42.666;23.366;2022-07-06T00:57:06;94935.31;;;21.64;77.81
40205;BME280;26963;42.666;23.366;2022-07-06T00:59:37;94934.28;;;21.73;76.76
40205;BME280;26963;42.666;23.366;2022-07-06T01:02:03;94868.44;;;21.44;75.45
40205;BME280;26963;42.666;23.366;2022-07-06T01:04:31;94922.91;;;21.90;75.47
40205;BME280;26963;42.666;23.366;2022-07-06T01:07:00;94908.53;;;21.93;76.25
40205;BME280;26963;42.666;23.366;2022-07-06T01:09:26;94853.31;;;21.70;75.39
40205;BME280;26963;42.666;23.366;2022-07-06T01:12:01;94885.53;;;21.91;74.45
40205;BME280;26963;42.666;23.366;2022-07-06T01:14:29;94888.72;;;21.96;74.43
40205;BME280;26963;42.666;23.366;2022-07-06T01:17:02;94883.38;;;22.04;74.70
40205;BME280;26963;42.666;23.366;2022-07-06T01:20:32;94896.50;;;22.21;74.58
40205;BME280;26963;42.666;23.366;2022-07-06T01:23:46;94855.63;;;21.94;73.26
40205;BME280;26963;42.666;23.366;2022-07-06T01:26:44;94896.59;;;22.28;74.31
40205;BME280;26963;42.666;23.366;2022-07-06T01:29:13;94898.50;;;22.28;74.22
40205;BME280;26963;42.666;23.366;2022-07-06T01:31:49;94886.00;;;22.23;73.43
40205;BME280;26963;42.666;23.366;2022-07-06T01:34:21;94900.34;;;22.20;73.36
40205;BME280;26963;42.666;23.366;2022-07-06T01:36:46;94882.66;;;22.07;72.94
40205;BME280;26963;42.666;23.366;2022-07-06T01:39:15;94888.72;;;21.96;73.58
40205;BME280;26963;42.666;23.366;2022-07-06T01:41:40;94816.84;;;21.51;74.50
40205;BME280;26963;42.666;23.366;2022-07-06T01:44:07;94872.38;;;21.96;74.58
40205;BME280;26963;42.666;23.366;2022-07-06T01:46:36;94892.09;;;22.13;74.55
40205;BME280;26963;42.666;23.366;2022-07-06T01:49:02;94901.50;;;22.19;74.44
40205;BME280;26963;42.666;23.366;2022-07-06T01:51:34;94899.53;;;22.16;74.38
40205;BME280;26963;42.666;23.366;2022-07-06T01:54:03;94901.44;;;22.12;74.40
40205;BME280;26963;42.666;23.366;2022-07-06T01:56:31;94908.47;;;22.16;74.07
40205;BME280;26963;42.666;23.366;2022-07-06T01:59:02;94907.28;;;22.14;74.07
40205;BME280;26963;42.666;23.366;2022-07-06T02:01:27;94916.63;;;22.13;73.96
40205;BME280;26963;42.666;23.366;2022-07-06T02:03:59;94919.34;;;22.13;74.29
40205;BME280;26963;42.666;23.366;2022-07-06T02:06:27;94920.56;;;22.15;74.06
40205;BME280;26963;42.666;23.366;2022-07-06T02:08:56;94862.03;;;21.79;73.85
40205;BME280;26963;42.666;23.366;2022-07-06T02:11:25;94911.38;;;22.01;72.65
40205;BME280;26963;42.666;23.366;2022-07-06T02:13:57;94916.91;;;22.08;72.38
40205;BME280;26963;42.666;23.366;2022-07-06T02:16:26;94915.38;;;22.07;71.80
40205;BME280;26963;42.666;23.366;2022-07-06T02:18:51;94921.22;;;22.09;71.58
40205;BME280;26963;42.666;23.366;2022-07-06T02:21:16;94913.09;;;22.12;71.12
40205;BME280;26963;42.666;23.366;2022-07-06T02:23:44;94919.34;;;22.13;70.90
40205;BME280;26963;42.666;23.366;2022-07-06T02:29:13;94924.81;;;22.13;69.64
40205;BME280;26963;42.666;23.366;2022-07-06T02:31:41;94916.91;;;22.08;71.08
40205;BME280;26963;42.666;23.366;2022-07-06T02:34:06;94902.88;;;22.06;71.10
40205;BME280;26963;42.666;23.366;2022-07-06T02:36:31;94909.91;;;22.07;70.71
40205;BME280;26963;42.666;23.366;2022-07-06T02:38:57;94907.59;;;22.09;71.00
40205;BME280;26963;42.666;23.366;2022-07-06T02:41:22;94915.31;;;22.03;70.02
40205;BME280;26963;42.666;23.366;2022-07-06T02:43:51;94912.53;;;21.99;68.35
40205;BME280;26963;42.666;23.366;2022-07-06T02:46:18;94913.25;;;21.96;69.77
40205;BME280;26963;42.666;23.366;2022-07-06T02:48:50;94912.00;;;21.90;69.44
40205;BME280;26963;42.666;23.366;2022-07-06T02:51:17;94907.28;;;21.87;68.94
40205;BME280;26963;42.666;23.366;2022-07-06T02:53:43;94915.03;;;21.85;70.00
40205;BME280;26963;42.666;23.366;2022-07-06T02:56:08;94910.00;;;21.87;69.61
40205;BME280;26963;42.666;23.366;2022-07-06T02:58:34;94919.63;;;21.81;69.03
40205;BME280;26963;42.666;23.366;2022-07-06T03:00:59;94911.88;;;21.83;69.05
40205;BME280;26963;42.666;23.366;2022-07-06T03:03:25;94902.25;;;21.89;69.80
40205;BME280;26963;42.666;23.366;2022-07-06T03:05:50;94899.94;;;21.91;69.30
40205;BME280;26963;42.666;23.366;2022-07-06T03:08:18;94901.13;;;21.94;68.98
40205;BME280;26963;42.666;23.366;2022-07-06T03:10:47;94912.00;;;21.90;69.44
40205;BME280;26963;42.666;23.366;2022-07-06T03:13:12;94904.19;;;21.89;69.68
40205;BME280;26963;42.666;23.366;2022-07-06T03:15:38;94909.69;;;21.92;69.41
40205;BME280;26963;42.666;23.366;2022-07-06T03:18:03;94910.50;;;21.96;68.51
40205;BME280;26963;42.666;23.366;2022-07-06T03:20:29;94912.41;;;21.92;68.61
40205;BME280;26963;42.666;23.366;2022-07-06T03:22:57;94916.72;;;21.93;68.63
40205;BME280;26963;42.666;23.366;2022-07-06T03:25:22;94920.69;;;21.99;69.42
40205;BME280;26963;42.666;23.366;2022-07-06T03:28:04;94928.50;;;22.01;69.57
40205;BME280;26963;42.666;23.366;2022-07-06T03:30:33;94933.88;;;21.97;70.32
40205;BME280;26963;42.666;23.366;2022-07-06T03:33:01;94930.84;;;22.03;70.17
40205;BME280;26963;42.666;23.366;2022-07-06T03:35:29;94927.88;;;22.11;68.72
40205;BME280;26963;42.666;23.366;2022-07-06T03:41:25;94938.00;;;22.11;68.22
40205;BME280;26963;42.666;23.366;2022-07-06T03:43:56;94934.22;;;22.19;68.45
40205;BME280;26963;42.666;23.366;2022-07-06T03:46:22;94942.38;;;22.19;67.63
40205;BME280;26963;42.666;23.366;2022-07-06T03:48:50;94941.22;;;22.20;68.17
40205;BME280;26963;42.666;23.366;2022-07-06T03:51:15;94945.28;;;22.30;67.46
40205;BME280;26963;42.666;23.366;2022-07-06T03:53:40;94938.63;;;22.27;67.64
40205;BME280;26963;42.666;23.366;2022-07-06T03:56:09;94943.31;;;22.30;67.67
40205;BME280;26963;42.666;23.366;2022-07-06T03:58:52;94950.06;;;22.37;67.87
40205;BME280;26963;42.666;23.366;2022-07-06T04:01:18;94943.00;;;22.36;67.51
40205;BME280;26963;42.666;23.366;2022-07-06T04:03:43;94944.50;;;22.29;66.81
40205;BME280;26963;42.666;23.366;2022-07-06T04:06:09;94945.22;;;22.26;66.43
40205;BME280;26963;42.666;23.366;2022-07-06T04:08:35;94941.03;;;22.32;65.46
40205;BME280;26963;42.666;23.366;2022-07-06T04:11:01;94944.13;;;22.88;64.14
40205;BME280;26963;42.666;23.366;2022-07-06T04:13:26;94942.91;;;23.54;62.02
40205;BME280;26963;42.666;23.366;2022-07-06T04:15:52;94953.91;;;24.06;59.79
40205;BME280;26963;42.666;23.366;2022-07-06T04:18:17;94947.25;;;24.59;57.85
40205;BME280;26963;42.666;23.366;2022-07-06T04:20:42;94947.09;;;25.11;56.96
40205;BME280;26963;42.666;23.366;2022-07-06T04:23:08;94946.88;;;25.70;54.98
40205;BME280;26963;42.666;23.366;2022-07-06T04:25:38;94951.19;;;26.44;53.50
40205;BME280;26963;42.666;23.366;2022-07-06T04:28:15;94943.94;;;27.15;51.74
40205;BME280;26963;42.666;23.366;2022-07-06T04:30:47;94941.09;;;27.93;49.39
40205;BME280;26963;42.666;23.366;2022-07-06T04:33:15;94951.47;;;28.69;46.80
40205;BME280;26963;42.666;23.366;2022-07-06T04:35:43;94951.31;;;29.49;43.87
40205;BME280;26963;42.666;23.366;2022-07-06T04:38:11;94950.63;;;30.47;41.19
40205;BME280;26963;42.666;23.366;2022-07-06T04:40:37;94965.56;;;31.33;39.79
40205;BME280;26963;42.666;23.366;2022-07-06T04:43:05;94965.03;;;31.95;38.50
40205;BME280;26963;42.666;23.366;2022-07-06T04:45:31;94965.53;;;32.56;37.12
40205;BME280;26963;42.666;23.366;2022-07-06T04:48:02;94978.72;;;32.98;35.51
40205;BME280;26963;42.666;23.366;2022-07-06T04:50:31;94980.66;;;33.56;33.58
40205;BME280;26963;42.666;23.366;2022-07-06T04:53:00;94984.34;;;33.79;33.46
40205;BME280;26963;42.666;23.366;2022-07-06T04:55:25;94985.66;;;33.74;33.57
40205;BME280;26963;42.666;23.366;2022-07-06T04:57:58;94992.53;;;33.27;34.49
40205;BME280;26963;42.666;23.366;2022-07-06T05:00:25;94993.69;;;31.68;37.75
40205;BME280;26963;42.666;23.366;2022-07-06T05:02:51;95002.47;;;30.35;39.92
40205;BME280;26963;42.666;23.366;2022-07-06T05:05:26;94994.78;;;29.37;42.01
40205;BME280;26963;42.666;23.366;2022-07-06T05:07:57;95010.75;;;28.80;43.33
40205;BME280;26963;42.666;23.366;2022-07-06T05:10:28;94998.91;;;28.42;44.64
40205;BME280;26963;42.666;23.366;2022-07-06T05:12:59;95005.81;;;28.12;45.33
40205;BME280;26963;42.666;23.366;2022-07-06T05:15:27;95013.59;;;27.57;46.72
40205;BME280;26963;42.666;23.366;2022-07-06T05:17:58;95013.66;;;27.46;47.43
40205;BME280;26963;42.666;23.366;2022-07-06T05:20:26;95014.56;;;27.07;47.75
40205;BME280;26963;42.666;23.366;2022-07-06T05:22:52;95016.22;;;26.79;48.50
40205;BME280;26963;42.666;23.366;2022-07-06T05:25:20;95017.00;;;26.83;49.01
40205;BME280;26963;42.666;23.366;2022-07-06T05:28:03;95015.41;;;26.79;48.82
40205;BME280;26963;42.666;23.366;2022-07-06T05:30:31;95027.19;;;26.72;48.64
40205;BME280;26963;42.666;23.366;2022-07-06T05:32:56;95020.16;;;26.60;49.30
40205;BME280;26963;42.666;23.366;2022-07-06T05:35:25;95019.38;;;26.31;49.65
40205;BME280;26963;42.666;23.366;2022-07-06T05:37:50;95024.88;;;26.20;49.92
40205;BME280;26963;42.666;23.366;2022-07-06T05:40:15;95025.66;;;26.13;50.79
40205;BME280;26963;42.666;23.366;2022-07-06T05:42:41;95024.06;;;26.05;49.39
40205;BME280;26963;42.666;23.366;2022-07-06T05:45:06;95025.22;;;26.22;50.22
40205;BME280;26963;42.666;23.366;2022-07-06T05:47:38;95031.91;;;26.32;49.72
40205;BME280;26963;42.666;23.366;2022-07-06T05:50:25;95033.47;;;26.33;50.14
40205;BME280;26963;42.666;23.366;2022-07-06T05:53:00;95028.00;;;26.33;48.84
40205;BME280;26963;42.666;23.366;2022-07-06T05:55:26;95037.38;;;26.32;49.06
40205;BME280;26963;42.666;23.366;2022-07-06T05:57:54;95038.56;;;26.38;49.06
40205;BME280;26963;42.666;23.366;2022-07-06T06:00:28;95038.19;;;26.47;49.75
40205;BME280;26963;42.666;23.366;2022-07-06T06:02:53;95037.38;;;26.53;48.22
40205;BME280;26963;42.666;23.366;2022-07-06T06:05:22;95038.19;;;26.50;48.38
40205;BME280;26963;42.666;23.366;2022-07-06T06:07:47;95036.63;;;26.35;49.28
40205;BME280;26963;42.666;23.366;2022-07-06T06:10:20;95034.63;;;26.25;49.48
40205;BME280;26963;42.666;23.366;2022-07-06T06:12:58;95040.06;;;26.03;50.27
40205;BME280;26963;42.666;23.366;2022-07-06T06:15:26;95010.31;;;25.83;50.17
40205;BME280;26963;42.666;23.366;2022-07-06T06:18:01;95038.88;;;25.86;50.90
40205;BME280;26963;42.666;23.366;2022-07-06T06:20:29;95037.31;;;25.88;51.14
40205;BME280;26963;42.666;23.366;2022-07-06T06:22:55;95042.81;;;25.88;50.82
40205;BME280;26963;42.666;23.366;2022-07-06T06:25:31;95039.66;;;25.72;50.77
40205;BME280;26963;42.666;23.366;2022-07-06T06:28:09;95030.59;;;25.61;50.41
40205;BME280;26963;42.666;23.366;2022-07-06T06:30:41;95034.13;;;25.58;51.35
40205;BME280;26963;42.666;23.366;2022-07-06T06:33:10;95034.09;;;25.50;52.04
40205;BME280;26963;42.666;23.366;2022-07-06T06:35:36;95030.19;;;25.51;51.73
40205;BME280;26963;42.666;23.366;2022-07-06T06:38:05;95029.38;;;25.47;51.67
40205;BME280;26963;42.666;23.366;2022-07-06T06:40:40;95032.50;;;25.42;51.12
40205;BME280;26963;42.666;23.366;2022-07-06T06:43:11;95033.22;;;25.35;51.37
40205;BME280;26963;42.666;23.366;2022-07-06T06:45:42;95029.31;;;25.33;51.53
40205;BME280;26963;42.666;23.366;2022-07-06T06:48:12;95022.78;;;25.55;50.89
40205;BME280;26963;42.666;23.366;2022-07-06T06:50:40;95034.50;;;25.60;50.84
40205;BME280;26963;42.666;23.366;2022-07-06T06:53:11;95028.69;;;25.86;51.12
40205;BME280;26963;42.666;23.366;2022-07-06T06:55:39;95020.16;;;26.24;50.08
40205;BME280;26963;42.666;23.366;2022-07-06T06:58:08;95025.22;;;26.62;47.88
40205;BME280;26963;42.666;23.366;2022-07-06T07:00:33;95026.25;;;28.60;43.77
40205;BME280;26963;42.666;23.366;2022-07-06T07:03:30;95013.97;;;29.75;40.98
40205;BME280;26963;42.666;23.366;2022-07-06T07:05:55;95007.09;;;29.29;42.39
40205;BME280;26963;42.666;23.366;2022-07-06T07:08:21;95024.31;;;29.02;42.33
40205;BME280;26963;42.666;23.366;2022-07-06T07:10:49;95025.63;;;28.87;42.62
40205;BME280;26963;42.666;23.366;2022-07-06T07:13:23;95032.00;;;28.31;43.73
40205;BME280;26963;42.666;23.366;2022-07-06T07:15:49;95029.16;;;27.86;43.98
40205;BME280;26963;42.666;23.366;2022-07-06T07:18:17;95029.31;;;27.53;45.50
40205;BME280;26963;42.666;23.366;2022-07-06T07:20:47;95025.38;;;27.58;45.56
40205;BME280;26963;42.666;23.366;2022-07-06T07:23:16;95031.75;;;27.40;46.18
40205;BME280;26963;42.666;23.366;2022-07-06T07:25:44;95019.19;;;27.25;45.15
40205;BME280;26963;42.666;23.366;2022-07-06T07:28:09;95018.88;;;27.08;46.11
40205;BME280;26963;42.666;23.366;2022-07-06T07:30:37;95019.69;;;27.05;46.39
40205;BME280;26963;42.666;23.366;2022-07-06T07:33:06;95020.84;;;27.04;46.51
40205;BME280;26963;42.666;23.366;2022-07-06T07:35:40;95017.69;;;27.09;47.22
40205;BME280;26963;42.666;23.366;2022-07-06T07:38:08;95014.19;;;26.98;47.37
40205;BME280;26963;42.666;23.366;2022-07-06T07:40:42;95014.94;;;27.09;46.60
40205;BME280;26963;42.666;23.366;2022-07-06T07:43:15;95011.84;;;27.07;46.54
40205;BME280;26963;42.666;23.366;2022-07-06T07:45:41;95007.50;;;27.06;46.81
40205;BME280;26963;42.666;23.366;2022-07-06T07:48:09;95011.78;;;27.22;46.27
40205;BME280;26963;42.666;23.366;2022-07-06T07:50:35;95016.81;;;27.34;46.58
40205;BME280;26963;42.666;23.366;2022-07-06T07:53:00;95019.06;;;27.61;46.08
40205;BME280;26963;42.666;23.366;2022-07-06T07:55:26;95006.63;;;29.96;41.64
40205;BME280;26963;42.666;23.366;2022-07-06T07:57:54;95007.34;;;33.08;36.00
40205;BME280;26963;42.666;23.366;2022-07-06T08:00:26;94992.34;;;35.34;31.84
40205;BME280;26963;42.666;23.366;2022-07-06T08:02:54;95004.75;;;36.96;28.48
40205;BME280;26963;42.666;23.366;2022-07-06T08:05:20;95009.03;;;36.78;29.47
40205;BME280;26963;42.666;23.366;2022-07-06T08:07:45;95001.72;;;36.62;27.82
40205;BME280;26963;42.666;23.366;2022-07-06T08:10:13;94999.69;;;36.53;28.35
40205;BME280;26963;42.666;23.366;2022-07-06T08:12:39;95002.16;;;35.03;30.30
40205;BME280;26963;42.666;23.366;2022-07-06T08:15:07;95008.59;;;35.13;30.28
40205;BME280;26963;42.666;23.366;2022-07-06T08:17:32;95010.47;;;37.39;28.46
40205;BME280;26963;42.666;23.366;2022-07-06T08:20:16;94994.25;;;38.80;25.59
40205;BME280;26963;42.666;23.366;2022-07-06T08:22:42;95004.13;;;38.33;26.49
40205;BME280;26963;42.666;23.366;2022-07-06T08:25:15;95004.22;;;38.72;25.52
40205;BME280;26963;42.666;23.366;2022-07-06T08:27:51;94997.88;;;39.65;23.27
40205;BME280;26963;42.666;23.366;2022-07-06T08:30:19;95003.75;;;40.48;23.32
40205;BME280;26963;42.666;23.366;2022-07-06T08:32:47;95003.63;;;41.19;22.09
40205;BME280;26963;42.666;23.366;2022-07-06T08:35:13;95004.34;;;41.14;22.24
40205;BME280;26963;42.666;23.366;2022-07-06T08:37:41;95008.38;;;40.51;22.65
40205;BME280;26963;42.666;23.366;2022-07-06T08:40:12;95006.72;;;42.00;21.47
40205;BME280;26963;42.666;23.366;2022-07-06T08:42:37;94998.91;;;42.59;20.56
40205;BME280;26963;42.666;23.366;2022-07-06T08:45:06;94995.38;;;43.24;20.16
40205;BME280;26963;42.666;23.366;2022-07-06T08:47:34;94997.59;;;40.85;21.83
40205;BME280;26963;42.666;23.366;2022-07-06T08:50:03;95003.84;;;39.58;23.29
40205;BME280;26963;42.666;23.366;2022-07-06T08:52:29;95001.19;;;40.29;22.27
40205;BME280;26963;42.666;23.366;2022-07-06T08:55:02;95000.38;;;41.47;21.82
40205;BME280;26963;42.666;23.366;2022-07-06T08:57:27;95000.75;;;41.13;21.42
40205;BME280;26963;42.666;23.366;2022-07-06T08:59:53;95001.31;;;41.96;21.29
40205;BME280;26963;42.666;23.366;2022-07-06T09:02:18;95009.03;;;42.01;21.52
40205;BME280;26963;42.666;23.366;2022-07-06T09:04:49;94998.50;;;41.96;20.32
40205;BME280;26963;42.666;23.366;2022-07-06T09:07:21;94996.03;;;41.25;21.33
40205;BME280;26963;42.666;23.366;2022-07-06T09:09:54;94999.66;;;42.48;20.04
40205;BME280;26963;42.666;23.366;2022-07-06T09:12:21;95001.19;;;41.32;20.17
40205;BME280;26963;42.666;23.366;2022-07-06T09:14:52;94995.72;;;40.20;21.81
40205;BME280;26963;42.666;23.366;2022-07-06T09:17:25;94997.63;;;38.27;24.20
40205;BME280;26963;42.666;23.366;2022-07-06T09:19:52;94994.47;;;36.83;26.43
40205;BME280;26963;42.666;23.366;2022-07-06T09:22:31;94997.25;;;35.74;28.40
40205;BME280;26963;42.666;23.366;2022-07-06T09:25:13;95001.56;;;34.73;29.42
40205;BME280;26963;42.666;23.366;2022-07-06T09:27:50;95005.44;;;33.89;30.53
40205;BME280;26963;42.666;23.366;2022-07-06T09:30:27;95005.28;;;33.25;31.64
40205;BME280;26963;42.666;23.366;2022-07-06T09:32:57;95000.75;;;32.89;32.91
40205;BME280;26963;42.666;23.366;2022-07-06T09:35:37;95001.03;;;32.45;33.67
40205;BME280;26963;42.666;23.366;2022-07-06T09:38:07;94998.47;;;32.01;33.85
40205;BME280;26963;42.666;23.366;2022-07-06T09:40:42;95006.34;;;31.86;35.02
40205;BME280;26963;42.666;23.366;2022-07-06T09:43:15;94994.59;;;31.62;34.30
40205;BME280;26963;42.666;23.366;2022-07-06T09:45:45;94989.47;;;31.23;35.17
40205;BME280;26963;42.666;23.366;2022-07-06T09:48:12;94992.31;;;30.76;35.85
40205;BME280;26963;42.666;23.366;2022-07-06T09:50:39;94988.19;;;30.40;36.74
40205;BME280;26963;42.666;23.366;2022-07-06T09:53:05;94975.34;;;30.30;37.51
40205;BME280;26963;42.666;23.366;2022-07-06T09:55:31;94981.34;;;30.49;37.55
40205;BME280;26963;42.666;23.366;2022-07-06T09:58:03;94978.69;;;30.65;37.86
40205;BME280;26963;42.666;23.366;2022-07-06T10:00:29;94981.81;;;30.67;37.49
40205;BME280;26963;42.666;23.366;2022-07-06T10:03:09;94972.66;;;30.94;36.58
40205;BME280;26963;42.666;23.366;2022-07-06T10:05:36;94979.03;;;30.91;36.23
40205;BME280;26963;42.666;23.366;2022-07-06T10:08:04;94977.47;;;30.90;36.06
40205;BME280;26963;42.666;23.366;2022-07-06T10:10:36;94984.19;;;30.89;36.18
40205;BME280;26963;42.666;23.366;2022-07-06T10:13:08;94971.25;;;30.86;37.09
40205;BME280;26963;42.666;23.366;2022-07-06T10:15:35;94981.75;;;30.71;36.86
40205;BME280;26963;42.666;23.366;2022-07-06T10:18:04;94975.91;;;30.89;37.33
40205;BME280;26963;42.666;23.366;2022-07-06T10:20:36;94974.13;;;30.79;37.17
40205;BME280;26963;42.666;23.366;2022-07-06T10:23:14;94967.41;;;30.80;37.08
40205;BME280;26963;42.666;23.366;2022-07-06T10:25:40;94968.84;;;30.64;37.30
40205;BME280;26963;42.666;23.366;2022-07-06T10:28:19;94977.22;;;30.81;37.46
40205;BME280;26963;42.666;23.366;2022-07-06T10:30:44;94968.94;;;30.81;37.46
40205;BME280;26963;42.666;23.366;2022-07-06T10:33:16;94951.25;;;30.98;37.59
40205;BME280;26963;42.666;23.366;2022-07-06T10:35:47;94965.22;;;31.11;37.06
40205;BME280;26963;42.666;23.366;2022-07-06T10:38:14;94956.72;;;31.22;36.19
40205;BME280;26963;42.666;23.366;2022-07-06T10:40:40;94966.25;;;30.97;36.60
40205;BME280;26963;42.666;23.366;2022-07-06T10:48:43;94966.19;;;30.81;37.16
40205;BME280;26963;42.666;23.366;2022-07-06T10:51:22;94960.31;;;30.79;37.47
40205;BME280;26963;42.666;23.366;2022-07-06T10:54:06;94953.34;;;30.70;37.47
40205;BME280;26963;42.666;23.366;2022-07-06T10:56:43;94960.75;;;30.77;37.15
40205;BME280;26963;42.666;23.366;2022-07-06T10:59:13;94959.47;;;30.82;37.01
40205;BME280;26963;42.666;23.366;2022-07-06T11:01:39;94957.19;;;30.77;36.65
40205;BME280;26963;42.666;23.366;2022-07-06T11:04:05;94955.19;;;30.57;36.23
40205;BME280;26963;42.666;23.366;2022-07-06T11:06:38;94952.31;;;30.40;36.85
40205;BME280;26963;42.666;23.366;2022-07-06T11:09:31;94955.41;;;30.42;37.79
40205;BME280;26963;42.666;23.366;2022-07-06T11:12:00;94955.53;;;30.59;36.96
40205;BME280;26963;42.666;23.366;2022-07-06T11:14:36;94962.41;;;30.51;37.36
40205;BME280;26963;42.666;23.366;2022-07-06T11:17:02;94953.56;;;30.60;37.31
40205;BME280;26963;42.666;23.366;2022-07-06T11:19:38;94950.44;;;30.57;36.54
40205;BME280;26963;42.666;23.366;2022-07-06T11:22:07;94941.88;;;30.52;36.15
40205;BME280;26963;42.666;23.366;2022-07-06T11:24:37;94956.13;;;30.47;36.72
40205;BME280;26963;42.666;23.366;2022-07-06T11:27:17;94947.34;;;30.55;37.07
40205;BME280;26963;42.666;23.366;2022-07-06T11:29:43;94938.41;;;30.68;36.61
40205;BME280;26963;42.666;23.366;2022-07-06T11:32:15;94935.22;;;30.69;36.83
40205;BME280;26963;42.666;23.366;2022-07-06T11:34:58;94944.50;;;30.59;36.79
40205;BME280;26963;42.666;23.366;2022-07-06T11:37:26;94933.09;;;30.57;36.40
40205;BME280;26963;42.666;23.366;2022-07-06T11:39:52;94935.63;;;30.48;36.40
40205;BME280;26963;42.666;23.366;2022-07-06T11:42:17;94934.19;;;30.39;36.84
40205;BME280;26963;42.666;23.366;2022-07-06T11:44:43;94920.00;;;30.37;36.84
40205;BME280;26963;42.666;23.366;2022-07-06T11:47:10;94925.09;;;30.39;36.67
40205;BME280;26963;42.666;23.366;2022-07-06T11:49:37;94923.25;;;30.32;36.62
40205;BME280;26963;42.666;23.366;2022-07-06T11:52:12;94918.72;;;30.22;37.15
40205;BME280;26963;42.666;23.366;2022-07-06T11:54:39;94916.44;;;30.17;37.11
40205;BME280;26963;42.666;23.366;2022-07-06T11:57:07;94914.16;;;30.12;36.79
40205;BME280;26963;42.666;23.366;2022-07-06T11:59:41;94911.09;;;30.06;37.08
40205;BME280;26963;42.666;23.366;2022-07-06T12:02:12;94910.91;;;29.93;37.36
40205;BME280;26963;42.666;23.366;2022-07-06T12:04:42;94902.69;;;29.89;36.95
40205;BME280;26963;42.666;23.366;2022-07-06T12:07:11;94907.00;;;29.90;37.39
40205;BME280;26963;42.666;23.366;2022-07-06T12:09:41;94906.38;;;29.79;37.70
40205;BME280;26963;42.666;23.366;2022-07-06T12:12:07;94898.03;;;29.83;37.86
40205;BME280;26963;42.666;23.366;2022-07-06T12:14:35;94900.44;;;29.81;37.37
40205;BME280;26963;42.666;23.366;2022-07-06T12:17:06;94906.91;;;29.70;37.39
40205;BME280;26963;42.666;23.366;2022-07-06T12:19:32;94903.53;;;29.59;37.29
40205;BME280;26963;42.666;23.366;2022-07-06T12:21:58;94904.94;;;29.43;37.51
40205;BME280;26963;42.666;23.366;2022-07-06T12:24:27;94898.06;;;29.28;37.58
40205;BME280;26963;42.666;23.366;2022-07-06T12:27:13;94903.59;;;29.24;38.15
40205;BME280;26963;42.666;23.366;2022-07-06T12:29:52;94906.31;;;28.97;38.61
40205;BME280;26963;42.666;23.366;2022-07-06T12:32:21;94904.13;;;28.85;38.06
40205;BME280;26963;42.666;23.366;2022-07-06T12:35:06;94894.72;;;28.82;38.21
40205;BME280;26963;42.666;23.366;2022-07-06T12:37:32;94905.53;;;28.62;39.18
40205;BME280;26963;42.666;23.366;2022-07-06T12:40:13;94911.38;;;28.64;38.24
40205;BME280;26963;42.666;23.366;2022-07-06T12:42:57;94896.13;;;28.59;38.67
40205;BME280;26963;42.666;23.366;2022-07-06T12:45:28;94896.66;;;28.43;39.76
40205;BME280;26963;42.666;23.366;2022-07-06T12:48:03;94886.50;;;28.40;39.35
40205;BME280;26963;42.666;23.366;2022-07-06T12:50:36;94886.94;;;28.35;38.86
40205;BME280;26963;42.666;23.366;2022-07-06T12:53:03;94880.63;;;28.38;39.27
40205;BME280;26963;42.666;23.366;2022-07-06T12:55:30;94881.38;;;28.39;39.66
40205;BME280;26963;42.666;23.366;2022-07-06T12:57:59;94873.97;;;28.36;39.97
40205;BME280;26963;42.666;23.366;2022-07-06T13:00:32;94873.94;;;28.39;40.92
40205;BME280;26963;42.666;23.366;2022-07-06T13:03:09;94879.34;;;28.46;40.44
40205;BME280;26963;42.666;23.366;2022-07-06T13:05:35;94880.53;;;28.45;40.72
40205;BME280;26963;42.666;23.366;2022-07-06T13:08:03;94880.91;;;28.47;39.47
40205;BME280;26963;42.666;23.366;2022-07-06T13:10:37;94877.41;;;28.43;39.41
40205;BME280;26963;42.666;23.366;2022-07-06T13:13:12;94881.78;;;28.37;39.30
40205;BME280;26963;42.666;23.366;2022-07-06T13:15:52;94876.28;;;28.37;39.59
40205;BME280;26963;42.666;23.366;2022-07-06T13:18:20;94872.34;;;28.38;39.23